sensor_id;sensor_type;location;lat;lon;timestamp;pressure;altitude;pressure_sealevel;temperature;humidity
28181;BME280;15464;50.988;10.318;2022-09-27T00:01:27;96927.00;;;9.66;97.45
28181;BME280;15464;50.988;10.318;2022-09-27T00:03:54;96923.81;;;9.71;96.71
28181;BME280;15464;50.988;10.318;2022-09-27T00:06:29;96928.47;;;9.69;97.44
28181;BME280;15464;50.988;10.318;2022-09-27T00:08:57;96919.69;;;9.68;97.13
28181;BME280;15464;50.988;10.318;2022-09-27T00:11:46;96921.72;;;9.66;97.74
28181;BME280;15464;50.988;10.318;2022-09-27T00:14:14;96916.41;;;9.66;97.04
28181;BME280;15464;50.988;10.318;2022-09-27T00:16:42;96917.25;;;9.67;97.62
28181;BME280;15464;50.988;10.318;2022-09-27T00:19:14;96900.88;;;9.63;97.58
28181;BME280;15464;50.988;10.318;2022-09-27T00:21:42;96899.59;;;9.59;97.76
28181;BME280;15464;50.988;10.318;2022-09-27T00:24:11;96899.22;;;9.62;98.27
28181;BME280;15464;50.988;10.318;2022-09-27T00:26:38;96888.63;;;9.62;98.36
28181;BME280;15464;50.988;10.318;2022-09-27T00:29:05;96898.38;;;9.62;98.06
28181;BME280;15464;50.988;10.318;2022-09-27T00:31:32;96890.13;;;9.65;98.12
28181;BME280;15464;50.988;10.318;2022-09-27T00:34:01;96887.31;;;9.66;97.72
28181;BME280;15464;50.988;10.318;2022-09-27T00:36:28;96869.72;;;9.74;97.08
28181;BME280;15464;50.988;10.318;2022-09-27T00:38:55;96877.00;;;9.71;97.48
28181;BME280;15464;50.988;10.318;2022-09-27T00:41:33;96884.28;;;9.69;97.42
28181;BME280;15464;50.988;10.318;2022-09-27T00:47:13;96880.34;;;9.65;98.52
28181;BME280;15464;50.988;10.318;2022-09-27T00:49:40;96878.38;;;9.67;97.89
28181;BME280;15464;50.988;10.318;2022-09-27T00:52:20;96864.75;;;9.70;98.04
28181;BME280;15464;50.988;10.318;2022-09-27T00:54:51;96872.75;;;9.62;98.58
28181;BME280;15464;50.988;10.318;2022-09-27T00:57:20;96859.47;;;9.70;98.11
28181;BME280;15464;50.988;10.318;2022-09-27T01:00:00;96858.47;;;9.71;98.62
28181;BME280;15464;50.988;10.318;2022-09-27T01:02:29;96862.78;;;9.73;98.85
28181;BME280;15464;50.988;10.318;2022-09-27T01:04:56;96861.47;;;9.68;99.27
28181;BME280;15464;50.988;10.318;2022-09-27T01:07:23;96866.03;;;9.75;98.54
28181;BME280;15464;50.988;10.318;2022-09-27T01:09:50;96871.59;;;9.65;99.41
28181;BME280;15464;50.988;10.318;2022-09-27T01:39:33;96839.13;;;9.48;100.00
28181;BME280;15464;50.988;10.318;2022-09-27T01:47:15;96831.09;;;9.56;100.00
28181;BME280;15464;50.988;10.318;2022-09-27T01:52:18;96821.34;;;9.57;100.00
28181;BME280;15464;50.988;10.318;2022-09-27T01:54:50;96819.69;;;9.56;100.00
28181;BME280;15464;50.988;10.318;2022-09-27T01:57:22;96815.06;;;9.58;100.00
28181;BME280;15464;50.988;10.318;2022-09-27T01:59:58;96814.06;;;9.59;100.00
28181;BME280;15464;50.988;10.318;2022-09-27T02:02:28;96809.59;;;9.59;100.00
28181;BME280;15464;50.988;10.318;2022-09-27T02:04:59;96811.59;;;9.57;100.00
28181;BME280;15464;50.988;10.318;2022-09-27T02:07:39;96806.28;;;9.57;100.00
28181;BME280;15464;50.988;10.318;2022-09-27T02:10:14;96809.34;;;9.46;100.00
28181;BME280;15464;50.988;10.318;2022-09-27T02:12:50;96807.66;;;9.53;100.00
28181;BME280;15464;50.988;10.318;2022-09-27T02:15:17;96804.19;;;9.53;100.00
28181;BME280;15464;50.988;10.318;2022-09-27T02:18:12;96810.63;;;9.50;100.00
28181;BME280;15464;50.988;10.318;2022-09-27T02:20:45;96798.88;;;9.53;100.00
28181;BME280;15464;50.988;10.318;2022-09-27T02:26:36;96808.66;;;9.52;100.00
28181;BME280;15464;50.988;10.318;2022-09-27T02:29:13;96800.06;;;9.50;100.00
28181;BME280;15464;50.988;10.318;2022-09-27T02:31:42;96802.19;;;9.55;100.00
28181;BME280;15464;50.988;10.318;2022-09-27T02:34:25;96799.72;;;9.53;100.00
28181;BME280;15464;50.988;10.318;2022-09-27T02:36:53;96798.88;;;9.53;100.00
28181;BME280;15464;50.988;10.318;2022-09-27T02:39:20;96801.38;;;9.54;100.00
28181;BME280;15464;50.988;10.318;2022-09-27T02:41:47;96799.53;;;9.55;100.00
28181;BME280;15464;50.988;10.318;2022-09-27T02:44:16;96795.38;;;9.60;100.00
28181;BME280;15464;50.988;10.318;2022-09-27T06:37:14;96913.22;;;8.54;100.00
28181;BME280;15464;50.988;10.318;2022-09-27T06:39:41;96915.34;;;8.59;100.00
28181;BME280;15464;50.988;10.318;2022-09-27T06:42:08;96922.81;;;8.55;100.00
28181;BME280;15464;50.988;10.318;2022-09-27T06:44:36;96927.06;;;8.56;100.00
28181;BME280;15464;50.988;10.318;2022-09-27T06:47:03;96918.16;;;8.57;100.00
28181;BME280;15464;50.988;10.318;2022-09-27T06:49:29;96924.59;;;8.63;100.00
28181;BME280;15464;50.988;10.318;2022-09-27T06:51:56;96928.22;;;8.70;100.00
28181;BME280;15464;50.988;10.318;2022-09-27T06:54:23;96929.03;;;8.70;100.00
28181;BME280;15464;50.988;10.318;2022-09-27T06:56:50;96934.69;;;8.67;100.00
28181;BME280;15464;50.988;10.318;2022-09-27T06:59:16;96936.13;;;8.70;100.00
28181;BME280;15464;50.988;10.318;2022-09-27T07:02:02;96938.78;;;8.78;100.00
28181;BME280;15464;50.988;10.318;2022-09-27T07:04:28;96939.44;;;8.80;100.00
28181;BME280;15464;50.988;10.318;2022-09-27T07:06:55;96949.50;;;8.84;100.00
28181;BME280;15464;50.988;10.318;2022-09-27T07:09:23;96940.88;;;8.90;100.00
28181;BME280;15464;50.988;10.318;2022-09-27T07:11:49;96948.84;;;8.82;100.00
28181;BME280;15464;50.988;10.318;2022-09-27T07:14:16;96953.78;;;8.85;100.00
28181;BME280;15464;50.988;10.318;2022-09-27T07:16:44;96960.06;;;8.84;100.00
28181;BME280;15464;50.988;10.318;2022-09-27T07:19:11;96960.91;;;8.77;100.00
28181;BME280;15464;50.988;10.318;2022-09-27T07:21:39;96963.69;;;8.83;100.00
28181;BME280;15464;50.988;10.318;2022-09-27T07:24:06;96971.63;;;8.83;100.00
28181;BME280;15464;50.988;10.318;2022-09-27T07:26:32;96970.97;;;8.81;100.00
28181;BME280;15464;50.988;10.318;2022-09-27T07:28:59;96979.56;;;8.83;100.00
28181;BME280;15464;50.988;10.318;2022-09-27T07:31:27;96975.41;;;8.81;100.00
28181;BME280;15464;50.988;10.318;2022-09-27T07:33:55;96981.53;;;8.81;100.00
28181;BME280;15464;50.988;10.318;2022-09-27T07:36:21;96984.00;;;8.91;100.00
28181;BME280;15464;50.988;10.318;2022-09-27T07:38:49;96989.78;;;8.95;100.00
28181;BME280;15464;50.988;10.318;2022-09-27T07:41:15;96984.03;;;8.83;100.00
28181;BME280;15464;50.988;10.318;2022-09-27T07:43:42;96996.41;;;8.99;100.00
28181;BME280;15464;50.988;10.318;2022-09-27T07:46:10;96996.91;;;8.86;100.00
28181;BME280;15464;50.988;10.318;2022-09-27T07:48:37;97000.72;;;8.83;100.00
28181;BME280;15464;50.988;10.318;2022-09-27T07:51:04;96999.88;;;8.91;100.00
28181;BME280;15464;50.988;10.318;2022-09-27T07:53:33;97000.72;;;8.92;100.00
28181;BME280;15464;50.988;10.318;2022-09-27T07:55:59;97009.78;;;8.97;100.00
28181;BME280;15464;50.988;10.318;2022-09-27T07:58:26;97005.97;;;9.00;100.00
28181;BME280;15464;50.988;10.318;2022-09-27T08:00:54;97013.72;;;9.01;100.00
28181;BME280;15464;50.988;10.318;2022-09-27T08:03:21;97015.22;;;9.04;100.00
28181;BME280;15464;50.988;10.318;2022-09-27T08:05:48;97021.81;;;9.08;100.00
28181;BME280;15464;50.988;10.318;2022-09-27T08:08:15;97025.13;;;9.10;100.00
28181;BME280;15464;50.988;10.318;2022-09-27T08:10:42;97032.84;;;9.19;100.00
28181;BME280;15464;50.988;10.318;2022-09-27T08:13:13;97036.34;;;9.20;100.00
28181;BME280;15464;50.988;10.318;2022-09-27T08:15:40;97034.50;;;9.20;100.00
28181;BME280;15464;50.988;10.318;2022-09-27T08:18:07;97032.53;;;9.14;100.00
28181;BME280;15464;50.988;10.318;2022-09-27T08:20:35;97043.13;;;9.14;100.00
28181;BME280;15464;50.988;10.318;2022-09-27T08:23:01;97042.97;;;9.24;100.00
28181;BME280;15464;50.988;10.318;2022-09-27T08:25:30;97045.56;;;9.32;100.00
28181;BME280;15464;50.988;10.318;2022-09-27T08:27:58;97048.50;;;9.37;100.00
28181;BME280;15464;50.988;10.318;2022-09-27T08:30:26;97063.06;;;9.41;99.34
28181;BME280;15464;50.988;10.318;2022-09-27T08:32:55;97056.78;;;9.42;99.23
28181;BME280;15464;50.988;10.318;2022-09-27T08:35:22;97061.25;;;9.42;99.25
28181;BME280;15464;50.988;10.318;2022-09-27T08:37:57;97055.44;;;9.46;99.34
28181;BME280;15464;50.988;10.318;2022-09-27T08:45:41;97065.88;;;9.48;99.40
28181;BME280;15464;50.988;10.318;2022-09-27T08:48:14;97065.34;;;9.60;99.19
28181;BME280;15464;50.988;10.318;2022-09-27T08:50:44;97075.63;;;9.47;97.78
28181;BME280;15464;50.988;10.318;2022-09-27T08:53:30;97076.63;;;9.46;97.72
28181;BME280;15464;50.988;10.318;2022-09-27T08:55:59;97078.13;;;9.49;98.90
28181;BME280;15464;50.988;10.318;2022-09-27T08:58:50;97076.06;;;9.67;99.92
28181;BME280;15464;50.988;10.318;2022-09-27T09:01:18;97074.56;;;9.64;98.82
28181;BME280;15464;50.988;10.318;2022-09-27T09:03:49;97082.50;;;9.73;98.29
28181;BME280;15464;50.988;10.318;2022-09-27T09:11:52;97080.53;;;10.05;96.85
28181;BME280;15464;50.988;10.318;2022-09-27T09:14:47;97086.31;;;10.09;95.18
28181;BME280;15464;50.988;10.318;2022-09-27T09:31:57;97096.22;;;10.07;91.16
28181;BME280;15464;50.988;10.318;2022-09-27T09:34:37;97095.91;;;10.10;91.51
28181;BME280;15464;50.988;10.318;2022-09-27T09:40:04;97107.03;;;10.05;89.29
28181;BME280;15464;50.988;10.318;2022-09-27T09:42:47;97104.53;;;10.04;87.96
28181;BME280;15464;50.988;10.318;2022-09-27T09:45:23;97116.13;;;10.03;88.86
28181;BME280;15464;50.988;10.318;2022-09-27T09:50:42;97116.78;;;10.05;87.66
28181;BME280;15464;50.988;10.318;2022-09-27T09:53:26;97116.44;;;10.08;87.39
28181;BME280;15464;50.988;10.318;2022-09-27T09:55:59;97109.78;;;10.20;87.96
28181;BME280;15464;50.988;10.318;2022-09-27T09:58:39;97108.38;;;10.32;88.52
28181;BME280;15464;50.988;10.318;2022-09-27T10:03:57;97107.25;;;10.58;87.22
28181;BME280;15464;50.988;10.318;2022-09-27T10:06:25;97114.56;;;10.56;85.80
28181;BME280;15464;50.988;10.318;2022-09-27T10:08:53;97115.06;;;10.51;84.73
28181;BME280;15464;50.988;10.318;2022-09-27T10:11:27;97111.84;;;10.64;84.50
28181;BME280;15464;50.988;10.318;2022-09-27T10:13:57;97116.81;;;10.67;84.48
28181;BME280;15464;50.988;10.318;2022-09-27T10:16:25;97120.41;;;10.74;82.64
28181;BME280;15464;50.988;10.318;2022-09-27T10:18:56;97115.97;;;10.89;82.81
28181;BME280;15464;50.988;10.318;2022-09-27T10:21:28;97106.88;;;11.06;82.13
28181;BME280;15464;50.988;10.318;2022-09-27T10:24:10;97100.22;;;11.25;80.64
28181;BME280;15464;50.988;10.318;2022-09-27T10:26:45;97108.22;;;11.40;81.03
28181;BME280;15464;50.988;10.318;2022-09-27T10:31:46;97108.28;;;11.17;76.96
28181;BME280;15464;50.988;10.318;2022-09-27T10:34:36;97107.47;;;11.16;77.24
28181;BME280;15464;50.988;10.318;2022-09-27T10:37:19;97104.72;;;11.24;77.09
28181;BME280;15464;50.988;10.318;2022-09-27T10:39:49;97109.94;;;11.18;75.21
28181;BME280;15464;50.988;10.318;2022-09-27T10:42:34;97105.53;;;11.10;72.30
28181;BME280;15464;50.988;10.318;2022-09-27T10:45:40;97111.66;;;11.25;73.15
28181;BME280;15464;50.988;10.318;2022-09-27T10:48:18;97103.84;;;11.47;75.30
28181;BME280;15464;50.988;10.318;2022-09-27T10:51:00;97106.81;;;11.66;73.99
28181;BME280;15464;50.988;10.318;2022-09-27T10:53:29;97107.81;;;11.65;72.47
28181;BME280;15464;50.988;10.318;2022-09-27T10:55:56;97108.59;;;11.74;73.09
28181;BME280;15464;50.988;10.318;2022-09-27T10:58:30;97105.59;;;11.69;72.09
28181;BME280;15464;50.988;10.318;2022-09-27T11:01:02;97103.34;;;11.95;75.13
28181;BME280;15464;50.988;10.318;2022-09-27T11:03:32;97105.34;;;11.93;72.90
28181;BME280;15464;50.988;10.318;2022-09-27T11:06:28;97118.75;;;11.85;71.34
28181;BME280;15464;50.988;10.318;2022-09-27T11:09:09;97111.56;;;12.00;71.11
28181;BME280;15464;50.988;10.318;2022-09-27T11:11:37;97112.22;;;11.88;69.97
28181;BME280;15464;50.988;10.318;2022-09-27T11:14:26;97112.47;;;12.07;69.87
28181;BME280;15464;50.988;10.318;2022-09-27T11:22:19;97114.66;;;12.90;69.92
28181;BME280;15464;50.988;10.318;2022-09-27T11:27:54;97117.78;;;12.07;68.68
28181;BME280;15464;50.988;10.318;2022-09-27T11:30:31;97121.63;;;12.20;69.56
28181;BME280;15464;50.988;10.318;2022-09-27T11:36:08;97111.88;;;11.91;70.54
28181;BME280;15464;50.988;10.318;2022-09-27T11:41:41;97118.72;;;12.15;70.44
28181;BME280;15464;50.988;10.318;2022-09-27T11:44:42;97112.72;;;12.42;70.00
28181;BME280;15464;50.988;10.318;2022-09-27T12:01:32;97106.09;;;12.95;64.41
28181;BME280;15464;50.988;10.318;2022-09-27T12:06:58;97104.13;;;12.61;67.22
28181;BME280;15464;50.988;10.318;2022-09-27T12:09:39;97107.75;;;12.39;67.01
28181;BME280;15464;50.988;10.318;2022-09-27T12:12:15;97110.13;;;12.48;68.01
28181;BME280;15464;50.988;10.318;2022-09-27T12:14:51;97114.63;;;12.69;67.56
28181;BME280;15464;50.988;10.318;2022-09-27T12:17:24;97114.78;;;12.61;67.02
28181;BME280;15464;50.988;10.318;2022-09-27T12:19:58;97120.97;;;12.32;66.30
28181;BME280;15464;50.988;10.318;2022-09-27T12:22:31;97117.53;;;12.53;66.52
28181;BME280;15464;50.988;10.318;2022-09-27T12:25:19;97127.03;;;12.62;64.89
28181;BME280;15464;50.988;10.318;2022-09-27T12:30:30;97126.81;;;13.21;64.64
28181;BME280;15464;50.988;10.318;2022-09-27T12:33:26;97135.69;;;13.28;61.96
28181;BME280;15464;50.988;10.318;2022-09-27T12:36:00;97130.84;;;12.96;61.55
28181;BME280;15464;50.988;10.318;2022-09-27T12:38:43;97120.91;;;13.04;61.58
28181;BME280;15464;50.988;10.318;2022-09-27T12:41:15;97117.94;;;13.35;61.10
28181;BME280;15464;50.988;10.318;2022-09-27T12:43:45;97118.19;;;12.98;60.86
28181;BME280;15464;50.988;10.318;2022-09-27T12:46:38;97121.22;;;12.94;60.03
28181;BME280;15464;50.988;10.318;2022-09-27T12:49:30;97115.97;;;12.44;59.45
28181;BME280;15464;50.988;10.318;2022-09-27T12:52:05;97120.53;;;12.29;61.39
28181;BME280;15464;50.988;10.318;2022-09-27T12:54:51;97116.41;;;12.26;61.41
28181;BME280;15464;50.988;10.318;2022-09-27T13:00:15;97129.81;;;11.89;61.26
28181;BME280;15464;50.988;10.318;2022-09-27T13:03:11;97125.25;;;11.97;62.61
28181;BME280;15464;50.988;10.318;2022-09-27T13:11:28;97119.25;;;12.61;61.49
28181;BME280;15464;50.988;10.318;2022-09-27T13:14:02;97122.69;;;13.40;63.13
28181;BME280;15464;50.988;10.318;2022-09-27T13:16:30;97113.19;;;13.58;61.55
28181;BME280;15464;50.988;10.318;2022-09-27T13:19:40;97124.22;;;13.27;62.29
28181;BME280;15464;50.988;10.318;2022-09-27T13:24:54;97119.97;;;12.90;62.12
28181;BME280;15464;50.988;10.318;2022-09-27T13:32:38;97120.28;;;12.45;61.89
28181;BME280;15464;50.988;10.318;2022-09-27T13:35:26;97120.88;;;12.26;62.75
28181;BME280;15464;50.988;10.318;2022-09-27T13:37:57;97125.75;;;12.22;63.61
28181;BME280;15464;50.988;10.318;2022-09-27T13:40:42;97117.28;;;12.48;63.37
28181;BME280;15464;50.988;10.318;2022-09-27T13:43:20;97117.38;;;12.40;62.20
28181;BME280;15464;50.988;10.318;2022-09-27T13:46:28;97124.19;;;12.13;63.29
28181;BME280;15464;50.988;10.318;2022-09-27T13:49:11;97116.56;;;12.25;64.51
28181;BME280;15464;50.988;10.318;2022-09-27T13:51:49;97131.00;;;12.16;65.22
28181;BME280;15464;50.988;10.318;2022-09-27T13:54:37;97134.13;;;12.04;65.44
28181;BME280;15464;50.988;10.318;2022-09-27T14:00:17;97129.38;;;11.85;65.05
28181;BME280;15464;50.988;10.318;2022-09-27T14:05:31;97120.94;;;12.68;66.84
28181;BME280;15464;50.988;10.318;2022-09-27T14:08:00;97128.91;;;12.47;66.25
28181;BME280;15464;50.988;10.318;2022-09-27T14:10:28;97125.00;;;12.64;66.13
28181;BME280;15464;50.988;10.318;2022-09-27T14:12:58;97135.75;;;12.56;65.23
28181;BME280;15464;50.988;10.318;2022-09-27T14:15:30;97135.91;;;12.19;65.91
28181;BME280;15464;50.988;10.318;2022-09-27T14:17:58;97129.44;;;12.06;67.81
28181;BME280;15464;50.988;10.318;2022-09-27T14:20:42;97132.94;;;11.92;68.84
28181;BME280;15464;50.988;10.318;2022-09-27T14:23:28;97143.28;;;11.87;68.99
28181;BME280;15464;50.988;10.318;2022-09-27T14:25:56;97138.69;;;11.81;68.05
28181;BME280;15464;50.988;10.318;2022-09-27T14:28:26;97141.78;;;11.70;68.95
28181;BME280;15464;50.988;10.318;2022-09-27T14:33:33;97141.38;;;11.44;69.71
28181;BME280;15464;50.988;10.318;2022-09-27T14:36:00;97144.22;;;11.42;70.54
28181;BME280;15464;50.988;10.318;2022-09-27T14:38:49;97156.88;;;11.17;71.23
28181;BME280;15464;50.988;10.318;2022-09-27T14:41:15;97149.78;;;11.32;72.01
28181;BME280;15464;50.988;10.318;2022-09-27T14:43:44;97156.03;;;10.94;72.11
28181;BME280;15464;50.988;10.318;2022-09-27T14:46:29;97162.31;;;10.78;70.29
28181;BME280;15464;50.988;10.318;2022-09-27T14:48:56;97170.66;;;10.67;71.02
28181;BME280;15464;50.988;10.318;2022-09-27T14:51:29;97163.88;;;10.65;71.10
28181;BME280;15464;50.988;10.318;2022-09-27T14:53:58;97168.25;;;10.49;71.84
28181;BME280;15464;50.988;10.318;2022-09-27T14:56:37;97157.66;;;10.49;74.37
28181;BME280;15464;50.988;10.318;2022-09-27T14:59:14;97142.69;;;10.57;76.54
28181;BME280;15464;50.988;10.318;2022-09-27T15:01:49;97150.50;;;10.81;75.98
28181;BME280;15464;50.988;10.318;2022-09-27T15:04:18;97160.06;;;10.90;75.71
28181;BME280;15464;50.988;10.318;2022-09-27T15:06:46;97156.81;;;10.80;74.68
28181;BME280;15464;50.988;10.318;2022-09-27T15:09:14;97152.44;;;10.87;74.27
28181;BME280;15464;50.988;10.318;2022-09-27T15:11:44;97155.41;;;10.92;74.69
28181;BME280;15464;50.988;10.318;2022-09-27T15:14:15;97162.06;;;10.88;75.27
28181;BME280;15464;50.988;10.318;2022-09-27T15:16:43;97162.50;;;10.69;75.70
28181;BME280;15464;50.988;10.318;2022-09-27T15:19:31;97167.66;;;10.39;76.01
28181;BME280;15464;50.988;10.318;2022-09-27T15:27:52;97169.84;;;10.36;77.58
28181;BME280;15464;50.988;10.318;2022-09-27T15:30:27;97169.63;;;10.37;77.57
28181;BME280;15464;50.988;10.318;2022-09-27T15:32:58;97171.16;;;10.32;79.00
28181;BME280;15464;50.988;10.318;2022-09-27T15:35:28;97169.69;;;10.29;79.05
28181;BME280;15464;50.988;10.318;2022-09-27T15:43:30;97164.56;;;10.28;80.14
28181;BME280;15464;50.988;10.318;2022-09-27T15:45:59;97165.69;;;10.33;80.11
28181;BME280;15464;50.988;10.318;2022-09-27T15:48:32;97168.72;;;10.30;80.44
28181;BME280;15464;50.988;10.318;2022-09-27T15:51:00;97168.34;;;10.33;80.47
28181;BME280;15464;50.988;10.318;2022-09-27T15:56:03;97163.03;;;10.33;81.57
28181;BME280;15464;50.988;10.318;2022-09-27T15:58:33;97157.31;;;10.52;80.52
28181;BME280;15464;50.988;10.318;2022-09-27T16:01:02;97162.44;;;10.54;80.39
28181;BME280;15464;50.988;10.318;2022-09-27T16:03:28;97171.53;;;10.60;79.74
28181;BME280;15464;50.988;10.318;2022-09-27T16:05:56;97179.00;;;10.56;80.09
28181;BME280;15464;50.988;10.318;2022-09-27T16:08:24;97176.53;;;10.55;80.37
28181;BME280;15464;50.988;10.318;2022-09-27T16:10:56;97177.94;;;10.42;80.08
28181;BME280;15464;50.988;10.318;2022-09-27T16:13:24;97179.91;;;10.40;79.90
28181;BME280;15464;50.988;10.318;2022-09-27T16:15:58;97177.13;;;10.34;80.41
28181;BME280;15464;50.988;10.318;2022-09-27T16:18:25;97183.72;;;10.38;80.12
28181;BME280;15464;50.988;10.318;2022-09-27T16:20:57;97183.03;;;10.44;79.66
28181;BME280;15464;50.988;10.318;2022-09-27T16:23:23;97184.06;;;10.43;79.79
28181;BME280;15464;50.988;10.318;2022-09-27T16:25:53;97196.00;;;10.31;78.95
28181;BME280;15464;50.988;10.318;2022-09-27T16:28:20;97196.88;;;10.23;78.83
28181;BME280;15464;50.988;10.318;2022-09-27T16:30:46;97191.44;;;10.08;78.35
28181;BME280;15464;50.988;10.318;2022-09-27T16:33:13;97190.59;;;10.08;78.92
28181;BME280;15464;50.988;10.318;2022-09-27T16:35:40;97193.91;;;10.10;78.57
28181;BME280;15464;50.988;10.318;2022-09-27T16:38:07;97200.53;;;10.06;78.38
28181;BME280;15464;50.988;10.318;2022-09-27T16:40:35;97201.56;;;10.05;78.28
28181;BME280;15464;50.988;10.318;2022-09-27T16:43:02;97214.31;;;9.93;78.81
28181;BME280;15464;50.988;10.318;2022-09-27T16:45:33;97207.03;;;9.95;78.53
28181;BME280;15464;50.988;10.318;2022-09-27T16:48:02;97211.19;;;9.98;78.31
28181;BME280;15464;50.988;10.318;2022-09-27T16:50:28;97204.91;;;9.83;77.60
28181;BME280;15464;50.988;10.318;2022-09-27T16:53:13;97204.22;;;9.89;77.20
28181;BME280;15464;50.988;10.318;2022-09-27T16:55:40;97207.91;;;9.80;77.59
28181;BME280;15464;50.988;10.318;2022-09-27T16:58:07;97202.78;;;9.70;77.34
28181;BME280;15464;50.988;10.318;2022-09-27T17:00:34;97201.63;;;9.73;77.42
28181;BME280;15464;50.988;10.318;2022-09-27T17:03:01;97199.97;;;9.71;77.58
28181;BME280;15464;50.988;10.318;2022-09-27T17:05:27;97199.28;;;9.78;77.72
28181;BME280;15464;50.988;10.318;2022-09-27T17:07:54;97202.25;;;9.83;77.61
28181;BME280;15464;50.988;10.318;2022-09-27T17:10:21;97196.97;;;9.83;78.04
28181;BME280;15464;50.988;10.318;2022-09-27T17:12:48;97197.63;;;9.77;78.26
28181;BME280;15464;50.988;10.318;2022-09-27T17:15:16;97199.63;;;9.75;79.10
28181;BME280;15464;50.988;10.318;2022-09-27T17:17:43;97209.56;;;9.64;78.71
28181;BME280;15464;50.988;10.318;2022-09-27T17:20:13;97207.44;;;9.60;79.97
28181;BME280;15464;50.988;10.318;2022-09-27T17:22:40;97209.72;;;9.63;79.50
28181;BME280;15464;50.988;10.318;2022-09-27T17:25:07;97218.03;;;9.60;79.80
28181;BME280;15464;50.988;10.318;2022-09-27T17:27:34;97211.91;;;9.59;79.34
28181;BME280;15464;50.988;10.318;2022-09-27T17:30:00;97208.91;;;9.62;79.10
28181;BME280;15464;50.988;10.318;2022-09-27T17:32:27;97210.91;;;9.60;79.27
28181;BME280;15464;50.988;10.318;2022-09-27T17:34:54;97212.56;;;9.53;79.94
28181;BME280;15464;50.988;10.318;2022-09-27T17:37:21;97208.94;;;9.46;80.55
28181;BME280;15464;50.988;10.318;2022-09-27T17:39:47;97206.28;;;9.46;80.88
28181;BME280;15464;50.988;10.318;2022-09-27T17:42:14;97211.59;;;9.30;81.95
28181;BME280;15464;50.988;10.318;2022-09-27T17:44:41;97214.06;;;9.31;82.20
28181;BME280;15464;50.988;10.318;2022-09-27T17:47:07;97216.53;;;9.33;82.33
28181;BME280;15464;50.988;10.318;2022-09-27T17:49:57;97213.38;;;9.38;81.95
28181;BME280;15464;50.988;10.318;2022-09-27T17:52:42;97223.16;;;9.21;84.00
28181;BME280;15464;50.988;10.318;2022-09-27T17:55:09;97236.34;;;9.13;84.92
28181;BME280;15464;50.988;10.318;2022-09-27T17:57:36;97241.31;;;9.08;85.64
28181;BME280;15464;50.988;10.318;2022-09-27T18:00:03;97239.66;;;8.99;86.67
28181;BME280;15464;50.988;10.318;2022-09-27T18:02:29;97245.91;;;8.89;87.95
28181;BME280;15464;50.988;10.318;2022-09-27T18:04:56;97234.66;;;8.79;89.39
28181;BME280;15464;50.988;10.318;2022-09-27T18:07:23;97233.50;;;8.74;90.58
28181;BME280;15464;50.988;10.318;2022-09-27T18:09:50;97227.34;;;8.65;91.57
28181;BME280;15464;50.988;10.318;2022-09-27T18:12:16;97231.31;;;8.69;91.31
28181;BME280;15464;50.988;10.318;2022-09-27T18:14:43;97223.66;;;8.50;90.48
28181;BME280;15464;50.988;10.318;2022-09-27T18:17:11;97225.66;;;8.56;90.81
28181;BME280;15464;50.988;10.318;2022-09-27T18:19:38;97227.50;;;8.56;91.38
28181;BME280;15464;50.988;10.318;2022-09-27T18:22:05;97222.06;;;8.65;90.25
28181;BME280;15464;50.988;10.318;2022-09-27T18:24:32;97220.09;;;8.67;89.74
28181;BME280;15464;50.988;10.318;2022-09-27T18:26:59;97217.69;;;8.40;91.39
28181;BME280;15464;50.988;10.318;2022-09-27T18:29:26;97216.22;;;8.45;91.88
28181;BME280;15464;50.988;10.318;2022-09-27T18:31:54;97224.63;;;8.41;90.95
28181;BME280;15464;50.988;10.318;2022-09-27T18:34:22;97215.72;;;8.42;91.26
28181;BME280;15464;50.988;10.318;2022-09-27T18:36:49;97225.66;;;8.48;90.75
28181;BME280;15464;50.988;10.318;2022-09-27T18:39:17;97221.84;;;8.42;91.71
28181;BME280;15464;50.988;10.318;2022-09-27T18:41:45;97218.03;;;8.37;92.38
28181;BME280;15464;50.988;10.318;2022-09-27T18:44:14;97228.53;;;8.29;94.41
28181;BME280;15464;50.988;10.318;2022-09-27T18:46:42;97225.75;;;8.30;92.70
28181;BME280;15464;50.988;10.318;2022-09-27T18:49:11;97220.97;;;8.34;92.47
28181;BME280;15464;50.988;10.318;2022-09-27T18:51:39;97220.00;;;8.35;92.36
28181;BME280;15464;50.988;10.318;2022-09-27T18:54:15;97217.34;;;8.35;92.22
28181;BME280;15464;50.988;10.318;2022-09-27T18:56:42;97228.41;;;8.30;93.08
28181;BME280;15464;50.988;10.318;2022-09-27T18:59:09;97227.69;;;8.28;92.09
28181;BME280;15464;50.988;10.318;2022-09-27T19:01:38;97234.59;;;8.21;92.75
28181;BME280;15464;50.988;10.318;2022-09-27T19:04:06;97230.13;;;8.22;92.23
28181;BME280;15464;50.988;10.318;2022-09-27T19:06:35;97236.59;;;8.27;92.12
28181;BME280;15464;50.988;10.318;2022-09-27T19:09:03;97232.28;;;8.26;93.05
28181;BME280;15464;50.988;10.318;2022-09-27T19:11:30;97242.41;;;8.31;91.72
28181;BME280;15464;50.988;10.318;2022-09-27T19:13:59;97237.94;;;8.31;93.21
28181;BME280;15464;50.988;10.318;2022-09-27T19:16:27;97233.50;;;8.32;92.07
28181;BME280;15464;50.988;10.318;2022-09-27T19:18:53;97236.13;;;8.32;92.51
28181;BME280;15464;50.988;10.318;2022-09-27T19:21:22;97234.19;;;8.34;92.41
28181;BME280;15464;50.988;10.318;2022-09-27T19:23:50;97243.09;;;8.33;92.37
28181;BME280;15464;50.988;10.318;2022-09-27T19:26:22;97248.78;;;8.20;94.50
28181;BME280;15464;50.988;10.318;2022-09-27T19:28:50;97250.44;;;8.21;93.38
28181;BME280;15464;50.988;10.318;2022-09-27T19:31:26;97251.25;;;8.22;93.05
28181;BME280;15464;50.988;10.318;2022-09-27T19:33:55;97243.19;;;8.23;93.50
28181;BME280;15464;50.988;10.318;2022-09-27T19:36:26;97254.53;;;8.16;94.27
28181;BME280;15464;50.988;10.318;2022-09-27T19:38:52;97252.56;;;8.18;93.79